createdAt,value
2023-03-08T00:03:57.364Z,99445.38
2023-03-08T00:07:58.806Z,99441.00
2023-03-08T00:12:00.216Z,99455.50
2023-03-08T00:16:03.766Z,99453.16
2023-03-08T00:20:07.336Z,99463.13
2023-03-08T00:24:08.757Z,99461.25
2023-03-08T00:28:10.177Z,99464.84
2023-03-08T00:32:11.634Z,99463.16
2023-03-08T00:36:18.172Z,99467.78
2023-03-08T00:40:19.624Z,99475.16
2023-03-08T00:44:21.052Z,99470.44
2023-03-08T00:48:23.076Z,99474.31
2023-03-08T00:52:26.958Z,99490.31
2023-03-08T00:56:28.440Z,99489.59
2023-03-08T01:00:31.665Z,99489.41
2023-03-08T01:04:33.947Z,99485.78
2023-03-08T01:08:36.254Z,99493.91
2023-03-08T01:12:38.271Z,99488.56
2023-03-08T01:16:40.967Z,99488.69
2023-03-08T01:20:42.600Z,99496.56
2023-03-08T01:24:45.796Z,99493.00
2023-03-08T01:28:47.881Z,99496.69
2023-03-08T01:32:49.457Z,99504.63
2023-03-08T01:36:50.890Z,99497.47
2023-03-08T01:40:57.544Z,99507.03
2023-03-08T01:45:03.294Z,99509.53
2023-03-08T01:49:27.070Z,99509.81
2023-03-08T01:53:30.146Z,99508.16
2023-03-08T01:57:34.926Z,99509.31
2023-03-08T02:01:36.563Z,99516.56
2023-03-08T02:05:41.951Z,99519.97
2023-03-08T02:09:50.305Z,99521.03
2023-03-08T02:13:54.388Z,99511.47
2023-03-08T02:17:57.377Z,99514.06
2023-03-08T02:21:58.883Z,99523.88
2023-03-08T02:26:04.969Z,99521.41
2023-03-08T02:30:07.032Z,99509.94
2023-03-08T02:34:08.493Z,99507.34
2023-03-08T02:38:12.527Z,99511.63
2023-03-08T02:42:13.991Z,99515.00
2023-03-08T02:46:17.796Z,99510.81
2023-03-08T02:50:20.335Z,99514.38
2023-03-08T02:54:21.937Z,99511.75
2023-03-08T02:58:23.493Z,99507.25
2023-03-08T03:02:25.170Z,99500.28
2023-03-08T03:06:26.691Z,99504.69
2023-03-08T03:10:30.990Z,99497.41
2023-03-08T03:14:32.753Z,99506.16
2023-03-08T03:18:35.828Z,99492.06
2023-03-08T03:22:37.374Z,99508.00
2023-03-08T03:26:41.505Z,99517.69
2023-03-08T03:30:43.030Z,99523.00
2023-03-08T03:34:47.127Z,99525.69
2023-03-08T03:38:51.423Z,99532.78
2023-03-08T03:42:53.764Z,99535.38
2023-03-08T03:46:55.372Z,99542.38
2023-03-08T03:51:09.969Z,99544.03
2023-03-08T03:55:13.120Z,99547.56
2023-03-08T03:59:15.171Z,99553.53
2023-03-08T04:03:17.181Z,99548.41
2023-03-08T04:07:19.342Z,99556.09
2023-03-08T04:11:34.087Z,99555.34
2023-03-08T04:15:36.380Z,99559.72
2023-03-08T04:19:41.631Z,99564.84
2023-03-08T04:23:45.414Z,99564.91
2023-03-08T04:27:47.154Z,99560.47
2023-03-08T04:31:49.223Z,99563.97
2023-03-08T04:35:53.805Z,99564.91
2023-03-08T04:39:58.569Z,99558.78
2023-03-08T04:44:00.191Z,99553.59
2023-03-08T04:48:14.906Z,99559.59
2023-03-08T04:52:16.546Z,99562.22
2023-03-08T04:56:19.120Z,99565.69
2023-03-08T05:00:22.269Z,99553.31
2023-03-08T05:04:23.823Z,99553.63
2023-03-08T05:08:27.310Z,99564.19
2023-03-08T05:12:28.984Z,99572.00
2023-03-08T05:16:33.701Z,99570.25
2023-03-08T05:20:38.426Z,99575.34
2023-03-08T05:24:41.285Z,99581.53
2023-03-08T05:28:45.780Z,99576.34
2023-03-08T05:32:47.354Z,99581.53
2023-03-08T05:36:49.318Z,99578.75
2023-03-08T05:40:51.439Z,99581.38
2023-03-08T05:44:53.250Z,99579.47
2023-03-08T05:49:00.713Z,99585.75
2023-03-08T05:53:05.185Z,99592.03
2023-03-08T05:57:06.630Z,99592.00
2023-03-08T06:01:20.490Z,99587.69
2023-03-08T06:05:22.164Z,99584.16
2023-03-08T06:09:28.023Z,99592.84
2023-03-08T06:13:29.628Z,99600.56
2023-03-08T06:17:31.511Z,99596.31
2023-03-08T06:21:34.048Z,99594.44
2023-03-08T06:25:37.984Z,99603.38
2023-03-08T06:29:39.650Z,99602.44
2023-03-08T06:33:41.953Z,99607.75
2023-03-08T06:37:47.743Z,99615.56
2023-03-08T06:41:50.363Z,99612.94
2023-03-08T06:45:53.116Z,99606.78
2023-03-08T06:49:56.270Z,99608.28
2023-03-08T06:53:57.992Z,99618.53
2023-03-08T06:58:02.567Z,99626.63
2023-03-08T07:02:04.108Z,99616.81
2023-03-08T07:06:08.510Z,99621.03
2023-03-08T07:10:12.155Z,99621.41
2023-03-08T07:14:13.587Z,99620.44
2023-03-08T07:18:16.068Z,99614.19
2023-03-08T07:22:17.611Z,99621.16
2023-03-08T07:26:19.304Z,99621.78
2023-03-08T07:30:21.093Z,99624.69
2023-03-08T07:34:22.587Z,99618.44
2023-03-08T07:38:24.035Z,99621.38
2023-03-08T07:42:27.243Z,99619.69
2023-03-08T07:46:34.536Z,99616.84
2023-03-08T07:50:36.721Z,99617.50
2023-03-08T07:54:38.719Z,99625.63
2023-03-08T07:58:40.304Z,99628.38
2023-03-08T08:02:42.111Z,99632.25
2023-03-08T08:06:43.654Z,99637.22
2023-03-08T08:10:45.309Z,99644.75
2023-03-08T08:14:46.824Z,99638.00
2023-03-08T08:18:48.614Z,99642.31
2023-03-08T08:22:53.187Z,99650.28
2023-03-08T08:26:54.738Z,99648.34
2023-03-08T08:31:02.077Z,99644.94
2023-03-08T08:35:04.730Z,99647.13
2023-03-08T08:39:06.135Z,99646.59
2023-03-08T08:43:07.660Z,99644.00
2023-03-08T08:47:09.126Z,99645.78
2023-03-08T08:51:12.964Z,99649.88
2023-03-08T08:55:14.645Z,99640.81
2023-03-08T08:59:16.379Z,99644.16
2023-03-08T09:03:17.848Z,99647.47
2023-03-08T09:07:19.248Z,99646.38
2023-03-08T09:11:21.050Z,99646.81
2023-03-08T09:15:23.140Z,99645.00
2023-03-08T09:19:24.649Z,99643.88
2023-03-08T09:23:26.175Z,99648.53
2023-03-08T09:27:27.574Z,99648.97
2023-03-08T09:31:29.063Z,99640.56
2023-03-08T09:35:30.806Z,99648.88
2023-03-08T09:39:32.447Z,99639.81
2023-03-08T09:43:51.358Z,99640.50
2023-03-08T09:48:10.933Z,99644.09
2023-03-08T09:52:30.733Z,99646.31
2023-03-08T09:56:38.285Z,99640.69
2023-03-08T10:00:41.738Z,99647.06
2023-03-08T10:04:46.925Z,99642.53
2023-03-08T10:08:57.073Z,99642.06
2023-03-08T10:13:26.073Z,99636.38
2023-03-08T10:17:42.044Z,99634.38
2023-03-08T10:21:44.744Z,99634.38
2023-03-08T10:25:47.440Z,99624.78
2023-03-08T10:29:51.003Z,99628.03
2023-03-08T10:34:00.981Z,99626.00
2023-03-08T10:38:03.670Z,99629.88
2023-03-08T10:42:16.121Z,99621.03
2023-03-08T10:46:20.602Z,99629.06
2023-03-08T10:50:27.958Z,99621.63
2023-03-08T10:54:29.643Z,99623.91
2023-03-08T10:58:39.639Z,99633.94
2023-03-08T11:02:41.122Z,99626.44
2023-03-08T11:06:42.870Z,99620.63
2023-03-08T11:10:44.581Z,99617.38
2023-03-08T11:14:47.872Z,99620.28
2023-03-08T11:19:06.472Z,99624.59
2023-03-08T11:23:35.314Z,99616.63
2023-03-08T11:28:18.322Z,99612.97
2023-03-08T11:32:40.910Z,99604.47
2023-03-08T11:36:58.161Z,99613.41
2023-03-08T11:41:36.960Z,99616.47
2023-03-08T11:45:53.108Z,99615.47
2023-03-08T11:50:20.537Z,99598.78
2023-03-08T11:54:41.645Z,99608.00
2023-03-08T11:58:54.499Z,99604.47
2023-03-08T12:03:01.319Z,99600.84
2023-03-08T12:07:09.873Z,99599.91
2023-03-08T12:11:24.343Z,99594.00
2023-03-08T12:15:38.734Z,99594.00
2023-03-08T12:19:46.234Z,99594.47
2023-03-08T12:24:12.709Z,99588.41
2023-03-08T12:28:25.667Z,99581.34
2023-03-08T12:32:28.426Z,99583.06
2023-03-08T12:36:46.812Z,99586.75
2023-03-08T12:40:53.823Z,99586.16
2023-03-08T12:45:28.097Z,99587.75
2023-03-08T12:49:37.321Z,99588.19
2023-03-08T12:53:50.845Z,99583.88
2023-03-08T12:57:54.975Z,99581.19
2023-03-08T13:01:56.444Z,99579.56
2023-03-08T13:05:57.953Z,99578.66
2023-03-08T13:10:07.729Z,99580.53
2023-03-08T13:14:23.276Z,99583.28
2023-03-08T13:18:24.715Z,99591.59
2023-03-08T13:22:37.709Z,99594.81
2023-03-08T13:26:58.302Z,99600.16
2023-03-08T13:31:13.026Z,99592.16
2023-03-08T13:35:16.793Z,99587.25
2023-03-08T13:39:23.581Z,99594.88
2023-03-08T13:43:31.123Z,99594.66
2023-03-08T13:47:34.827Z,99596.81
2023-03-08T13:51:36.305Z,99593.72
2023-03-08T13:55:47.197Z,99592.59
2023-03-08T13:59:51.383Z,99600.53
2023-03-08T14:03:55.366Z,99598.97
2023-03-08T14:08:06.144Z,99598.97
2023-03-08T14:12:08.028Z,99604.13
2023-03-08T14:16:23.193Z,99603.47
2023-03-08T14:20:25.414Z,99605.78
2023-03-08T14:24:32.630Z,99607.88
2023-03-08T14:28:40.461Z,99586.66
2023-03-08T14:32:57.719Z,99592.94
2023-03-08T14:37:13.963Z,99584.75
2023-03-08T14:41:15.978Z,99583.09
2023-03-08T14:45:23.638Z,99583.25
2023-03-08T14:49:29.224Z,99583.66
2023-03-08T14:53:39.223Z,99584.94
2023-03-08T14:57:42.311Z,99583.78
2023-03-08T15:01:43.898Z,99576.75
2023-03-08T15:05:48.469Z,99575.34
2023-03-08T15:09:51.457Z,99572.75
2023-03-08T15:13:52.909Z,99577.06
2023-03-08T15:17:54.499Z,99578.69
2023-03-08T15:21:56.046Z,99581.88
2023-03-08T15:25:59.235Z,99574.09
2023-03-08T15:30:00.727Z,99570.94
2023-03-08T15:34:02.177Z,99572.72
2023-03-08T15:38:03.713Z,99565.53
2023-03-08T15:42:05.466Z,99566.72
2023-03-08T15:46:06.945Z,99558.38
2023-03-08T15:50:17.353Z,99561.78
2023-03-08T15:54:18.980Z,99561.09
2023-03-08T15:58:20.517Z,99559.84
2023-03-08T16:02:22.023Z,99568.03
2023-03-08T16:06:24.559Z,99563.91
2023-03-08T16:10:28.460Z,99562.78
2023-03-08T16:14:29.958Z,99564.75
2023-03-08T16:18:32.460Z,99553.88
2023-03-08T16:22:34.314Z,99562.38
2023-03-08T16:26:35.815Z,99561.03
2023-03-08T16:30:39.171Z,99563.19
2023-03-08T16:34:40.728Z,99561.88
2023-03-08T16:38:42.591Z,99562.34
2023-03-08T16:42:44.238Z,99557.16
2023-03-08T16:46:45.801Z,99556.00
2023-03-08T16:50:55.634Z,99557.69
2023-03-08T16:54:57.150Z,99554.88
2023-03-08T16:58:59.913Z,99564.66
2023-03-08T17:03:01.332Z,99558.59
2023-03-08T17:07:06.453Z,99553.66
2023-03-08T17:11:15.607Z,99561.81
2023-03-08T17:15:17.070Z,99562.66
2023-03-08T17:19:18.538Z,99559.19
2023-03-08T17:23:20.207Z,99565.50
2023-03-08T17:27:22.179Z,99569.50
2023-03-08T17:31:24.263Z,99578.75
2023-03-08T17:35:26.311Z,99574.31
2023-03-08T17:39:27.765Z,99570.63
2023-03-08T17:43:29.174Z,99567.88
2023-03-08T17:47:30.573Z,99566.41
2023-03-08T17:51:32.658Z,99571.97
2023-03-08T17:55:34.063Z,99570.75
2023-03-08T17:59:35.520Z,99571.53
2023-03-08T18:03:38.072Z,99577.78
2023-03-08T18:07:41.834Z,99575.09
2023-03-08T18:11:43.789Z,99573.38
2023-03-08T18:15:45.298Z,99572.47
2023-03-08T18:19:47.375Z,99585.81
2023-03-08T18:23:48.835Z,99583.66
2023-03-08T18:27:50.349Z,99577.41
2023-03-08T18:31:52.885Z,99578.47
2023-03-08T18:35:57.818Z,99590.72
2023-03-08T18:39:59.571Z,99577.59
2023-03-08T18:44:01.158Z,99582.06
2023-03-08T18:48:02.759Z,99575.97
2023-03-08T18:52:05.111Z,99573.16
2023-03-08T18:56:06.934Z,99574.00
2023-03-08T19:00:10.679Z,99573.16
2023-03-08T19:04:12.239Z,99575.78
2023-03-08T19:08:13.834Z,99570.72
2023-03-08T19:12:15.769Z,99577.34
2023-03-08T19:16:36.122Z,99574.47
2023-03-08T19:20:40.061Z,99571.59
2023-03-08T19:24:41.492Z,99575.00
2023-03-08T19:28:42.981Z,99577.63
2023-03-08T19:32:44.486Z,99571.97
2023-03-08T19:36:47.699Z,99583.47
2023-03-08T19:40:49.207Z,99574.53
2023-03-08T19:44:52.591Z,99571.16
2023-03-08T19:48:54.699Z,99572.00
2023-03-08T19:52:56.119Z,99569.47
2023-03-08T19:56:58.444Z,99561.63
2023-03-08T20:01:05.350Z,99561.53
2023-03-08T20:05:07.037Z,99565.88
2023-03-08T20:09:18.104Z,99571.03
2023-03-08T20:13:19.740Z,99583.25
2023-03-08T20:17:23.287Z,99577.19
2023-03-08T20:21:28.457Z,99571.88
2023-03-08T20:25:29.883Z,99568.47
2023-03-08T20:29:31.415Z,99577.31
2023-03-08T20:33:32.819Z,99574.63
2023-03-08T20:37:34.474Z,99569.44
2023-03-08T20:41:35.943Z,99576.44
2023-03-08T20:45:39.298Z,99572.09
2023-03-08T20:49:40.946Z,99569.50
2023-03-08T20:53:42.445Z,99572.09
2023-03-08T20:57:47.587Z,99567.75
2023-03-08T21:01:49.794Z,99569.41
2023-03-08T21:05:51.344Z,99584.31
2023-03-08T21:09:53.036Z,99581.72
2023-03-08T21:13:55.517Z,99581.66
2023-03-08T21:17:56.936Z,99577.28
2023-03-08T21:21:58.468Z,99590.31
2023-03-08T21:26:00.942Z,99585.22
2023-03-08T21:30:03.666Z,99582.53
2023-03-08T21:34:06.484Z,99565.06
2023-03-08T21:38:08.780Z,99576.47
2023-03-08T21:42:10.195Z,99578.22
2023-03-08T21:46:11.781Z,99568.59
2023-03-08T21:50:13.248Z,99566.84
2023-03-08T21:54:15.474Z,99574.72
2023-03-08T21:58:18.913Z,99575.56
2023-03-08T22:02:20.506Z,99568.59
2023-03-08T22:06:23.420Z,99573.84
2023-03-08T22:10:24.930Z,99564.22
2023-03-08T22:14:27.074Z,99579.06
2023-03-08T22:18:28.593Z,99579.97
2023-03-08T22:22:30.042Z,99574.72
2023-03-08T22:26:32.417Z,99570.34
2023-03-08T22:30:33.882Z,99570.38
2023-03-08T22:34:35.586Z,99567.75
2023-03-08T22:38:38.175Z,99566.88
2023-03-08T22:42:40.107Z,99563.38
2023-03-08T22:46:42.053Z,99556.38
2023-03-08T22:50:43.629Z,99551.16
2023-03-08T22:54:45.263Z,99555.50
2023-03-08T22:59:06.633Z,99560.75
2023-03-08T23:03:08.360Z,99551.16
2023-03-08T23:07:09.951Z,99542.41
2023-03-08T23:11:12.236Z,99553.75
2023-03-08T23:15:13.707Z,99555.50
2023-03-08T23:19:19.490Z,99554.59
2023-03-08T23:23:24.905Z,99556.31
2023-03-08T23:27:26.471Z,99556.34
2023-03-08T23:31:30.345Z,99549.38
2023-03-08T23:35:31.868Z,99548.50
2023-03-08T23:39:33.990Z,99556.38
2023-03-08T23:43:36.614Z,99559.00
2023-03-08T23:47:38.042Z,99559.00
2023-03-08T23:51:39.515Z,99558.97
2023-03-08T23:55:41.367Z,99556.38
2023-03-08T23:59:43.216Z,99555.53
